createdAt,value
2023-03-13T00:00:19.232Z,-0.39
2023-03-13T00:02:50.446Z,-0.41
2023-03-13T00:05:20.052Z,-0.42
2023-03-13T00:07:51.701Z,-0.46
2023-03-13T00:10:21.183Z,-0.45
2023-03-13T00:12:50.842Z,-0.44
2023-03-13T00:15:22.120Z,-0.44
2023-03-13T00:17:50.998Z,-0.45
2023-03-13T00:20:21.529Z,-0.46
2023-03-13T00:22:51.831Z,-0.45
2023-03-13T00:25:22.052Z,-0.44
2023-03-13T00:27:53.328Z,-0.46
2023-03-13T00:30:23.703Z,-0.47
2023-03-13T00:32:53.942Z,-0.50
2023-03-13T00:35:24.700Z,-0.51
2023-03-13T00:37:56.145Z,-0.50
2023-03-13T00:40:26.454Z,-0.49
2023-03-13T00:42:55.203Z,-0.49
2023-03-13T00:45:26.939Z,-0.51
2023-03-13T00:47:55.385Z,-0.52
2023-03-13T00:50:25.680Z,-0.52
2023-03-13T00:52:55.087Z,-0.52
2023-03-13T00:55:25.428Z,-0.54
2023-03-13T00:57:55.677Z,-0.53
2023-03-13T01:00:25.148Z,-0.53
2023-03-13T01:02:56.224Z,-0.55
2023-03-13T01:05:25.228Z,-0.57
2023-03-13T01:07:54.469Z,-0.58
2023-03-13T01:10:25.333Z,-0.58
2023-03-13T01:12:54.555Z,-0.59
2023-03-13T01:15:24.587Z,-0.59
2023-03-13T01:17:53.370Z,-0.59
2023-03-13T01:20:25.091Z,-0.59
2023-03-13T01:22:53.759Z,-0.58
2023-03-13T01:25:25.022Z,-0.58
2023-03-13T01:27:55.871Z,-0.61
2023-03-13T01:30:25.063Z,-0.64
2023-03-13T01:32:55.560Z,-0.66
2023-03-13T01:35:26.779Z,-0.64
2023-03-13T01:37:57.987Z,-0.65
2023-03-13T01:40:26.877Z,-0.63
2023-03-13T01:42:59.446Z,-0.62
2023-03-13T01:45:55.215Z,-0.61
2023-03-13T01:48:51.281Z,-0.61
2023-03-13T01:51:29.526Z,-0.65
2023-03-13T01:54:36.779Z,-0.65
2023-03-13T01:57:23.246Z,-0.67
2023-03-13T02:00:22.394Z,-0.67
2023-03-13T02:02:55.872Z,-0.68
2023-03-13T02:05:27.493Z,-0.67
2023-03-13T02:08:27.874Z,-0.65
2023-03-13T02:11:14.463Z,-0.66
2023-03-13T02:13:44.196Z,-0.66
2023-03-13T02:16:13.596Z,-0.67
2023-03-13T02:18:42.486Z,-0.67
2023-03-13T02:21:22.024Z,-0.67
2023-03-13T02:24:03.559Z,-0.66
2023-03-13T02:26:32.762Z,-0.63
2023-03-13T02:29:03.297Z,-0.63
2023-03-13T02:31:32.831Z,-0.66
2023-03-13T02:34:01.572Z,-0.66
2023-03-13T02:36:31.710Z,-0.68
2023-03-13T02:39:04.207Z,-0.70
2023-03-13T02:41:34.075Z,-0.76
2023-03-13T02:44:06.845Z,-0.80
2023-03-13T02:46:50.077Z,-0.87
2023-03-13T02:49:28.104Z,-0.93
2023-03-13T02:52:01.956Z,-1.00
2023-03-13T02:54:34.420Z,-1.04
2023-03-13T02:57:04.863Z,-1.08
2023-03-13T02:59:33.891Z,-1.14
2023-03-13T03:02:04.086Z,-1.18
2023-03-13T03:04:33.152Z,-1.29
2023-03-13T03:07:03.448Z,-1.34
2023-03-13T03:09:34.335Z,-1.38
2023-03-13T03:12:07.751Z,-1.43
2023-03-13T03:14:38.127Z,-1.46
2023-03-13T03:17:08.514Z,-1.49
2023-03-13T03:19:39.030Z,-1.55
2023-03-13T03:22:08.253Z,-1.54
2023-03-13T03:24:36.893Z,-1.52
2023-03-13T03:27:06.196Z,-1.52
2023-03-13T03:29:37.012Z,-1.54
2023-03-13T03:32:07.877Z,-1.58
2023-03-13T03:34:36.751Z,-1.61
2023-03-13T03:37:09.106Z,-1.65
2023-03-13T03:39:38.823Z,-1.67
2023-03-13T03:42:09.586Z,-1.69
2023-03-13T03:44:39.308Z,-1.72
2023-03-13T03:47:11.122Z,-1.79
2023-03-13T03:49:43.423Z,-1.82
2023-03-13T03:52:13.330Z,-1.84
2023-03-13T03:54:44.217Z,-1.80
2023-03-13T03:57:14.996Z,-1.76
2023-03-13T03:59:46.983Z,-1.78
2023-03-13T04:02:17.182Z,-1.81
2023-03-13T04:04:47.088Z,-1.84
2023-03-13T04:07:18.187Z,-1.82
2023-03-13T04:09:47.034Z,-1.78
2023-03-13T04:12:20.802Z,-1.73
2023-03-13T04:14:52.327Z,-1.70
2023-03-13T04:17:22.892Z,-1.66
2023-03-13T04:19:52.598Z,-1.61
2023-03-13T04:22:24.483Z,-1.56
2023-03-13T04:24:56.808Z,-1.52
2023-03-13T04:27:26.363Z,-1.48
2023-03-13T04:29:55.742Z,-1.46
2023-03-13T04:32:30.156Z,-1.42
2023-03-13T04:35:18.744Z,-1.40
2023-03-13T04:37:49.753Z,-1.39
2023-03-13T04:40:26.243Z,-1.37
2023-03-13T04:43:00.889Z,-1.39
2023-03-13T04:45:54.721Z,-1.40
2023-03-13T04:48:26.098Z,-1.40
2023-03-13T04:51:00.743Z,-1.38
2023-03-13T04:53:44.065Z,-1.35
2023-03-13T04:56:42.160Z,-1.31
2023-03-13T04:59:12.821Z,-1.26
2023-03-13T05:02:00.271Z,-1.28
2023-03-13T05:04:35.449Z,-1.29
2023-03-13T05:07:23.140Z,-1.26
2023-03-13T05:09:58.395Z,-1.19
2023-03-13T05:12:40.928Z,-1.15
2023-03-13T05:15:13.039Z,-1.11
2023-03-13T05:17:54.839Z,-1.10
2023-03-13T05:20:45.268Z,-1.07
2023-03-13T05:23:31.752Z,-1.05
2023-03-13T05:26:05.398Z,-1.05
2023-03-13T05:28:40.129Z,-1.04
2023-03-13T05:31:28.104Z,-0.99
2023-03-13T05:33:59.425Z,-0.93
2023-03-13T05:36:40.584Z,-0.88
2023-03-13T05:39:24.985Z,-0.83
2023-03-13T05:42:14.450Z,-0.76
2023-03-13T05:45:05.360Z,-0.71
2023-03-13T05:47:48.820Z,-0.67
2023-03-13T05:50:24.812Z,-0.60
2023-03-13T05:52:56.560Z,-0.55
2023-03-13T05:55:30.829Z,-0.48
2023-03-13T05:58:03.520Z,-0.38
2023-03-13T06:00:35.568Z,-0.29
2023-03-13T06:03:16.746Z,-0.20
2023-03-13T06:05:48.888Z,-0.10
2023-03-13T06:08:25.804Z,0.03
2023-03-13T06:10:55.038Z,0.12
2023-03-13T06:13:24.471Z,0.23
2023-03-13T06:15:58.155Z,0.32
2023-03-13T06:18:43.989Z,0.43
2023-03-13T06:21:13.729Z,0.55
2023-03-13T06:23:44.918Z,0.67
2023-03-13T06:26:14.872Z,0.75
2023-03-13T06:28:45.274Z,0.82
2023-03-13T06:31:14.361Z,0.86
2023-03-13T06:33:43.286Z,0.91
2023-03-13T06:36:12.707Z,0.95
2023-03-13T06:38:41.787Z,0.99
2023-03-13T06:41:12.795Z,1.00
2023-03-13T06:43:42.794Z,1.03
2023-03-13T06:46:20.374Z,1.07
2023-03-13T06:48:49.631Z,1.16
2023-03-13T06:51:21.819Z,1.26
2023-03-13T06:53:52.239Z,1.35
2023-03-13T06:56:22.662Z,1.47
2023-03-13T06:58:53.618Z,1.58
2023-03-13T07:01:23.672Z,1.70
2023-03-13T07:03:52.417Z,1.78
2023-03-13T07:06:21.708Z,1.86
2023-03-13T07:08:51.670Z,1.94
2023-03-13T07:11:22.014Z,2.01
2023-03-13T07:14:10.053Z,2.10
2023-03-13T07:16:28.224Z,2.14
2023-03-13T07:19:03.509Z,2.18
2023-03-13T07:21:32.199Z,2.23
2023-03-13T07:24:02.416Z,2.32
2023-03-13T07:26:32.466Z,2.40
2023-03-13T07:29:02.311Z,2.50
2023-03-13T07:31:33.839Z,2.57
2023-03-13T07:34:02.939Z,2.64
2023-03-13T07:36:35.131Z,2.70
2023-03-13T07:39:05.840Z,2.72
2023-03-13T07:41:34.788Z,2.75
2023-03-13T07:44:03.449Z,2.75
2023-03-13T07:46:32.262Z,2.77
2023-03-13T07:49:03.046Z,2.81
2023-03-13T07:51:43.601Z,2.86
2023-03-13T07:54:06.591Z,2.94
2023-03-13T07:56:35.679Z,3.02
2023-03-13T07:59:05.541Z,3.10
2023-03-13T08:01:34.885Z,3.21
2023-03-13T08:04:05.900Z,3.31
2023-03-13T08:06:36.226Z,3.38
2023-03-13T08:09:06.921Z,3.44
2023-03-13T08:11:36.817Z,3.49
2023-03-13T08:14:07.979Z,3.56
2023-03-13T08:16:38.545Z,3.64
2023-03-13T08:19:09.018Z,3.71
2023-03-13T08:21:39.442Z,3.76
2023-03-13T08:24:10.698Z,3.79
2023-03-13T08:26:40.931Z,3.85
2023-03-13T08:29:13.367Z,3.90
2023-03-13T08:31:48.672Z,3.93
2023-03-13T08:34:19.107Z,3.97
2023-03-13T08:36:47.762Z,3.98
2023-03-13T08:39:19.339Z,4.01
2023-03-13T08:41:48.110Z,4.06
2023-03-13T08:44:20.456Z,4.14
2023-03-13T08:46:49.202Z,4.22
2023-03-13T08:49:19.592Z,4.30
2023-03-13T08:51:50.187Z,4.34
2023-03-13T08:54:19.346Z,4.40
2023-03-13T08:56:48.858Z,4.47
2023-03-13T08:59:19.823Z,4.52
2023-03-13T09:01:49.319Z,4.54
2023-03-13T09:04:18.661Z,4.58
2023-03-13T09:06:48.522Z,4.64
2023-03-13T09:09:18.550Z,4.66
2023-03-13T09:11:49.794Z,4.67
2023-03-13T09:14:21.498Z,4.69
2023-03-13T09:16:52.359Z,4.71
2023-03-13T09:19:21.887Z,4.74
2023-03-13T09:21:52.551Z,4.80
2023-03-13T09:24:21.592Z,4.82
2023-03-13T09:27:00.610Z,4.84
2023-03-13T09:29:21.715Z,4.87
2023-03-13T09:31:50.900Z,4.90
2023-03-13T09:34:20.230Z,4.92
2023-03-13T09:36:48.859Z,4.96
2023-03-13T09:39:19.340Z,4.99
2023-03-13T09:41:57.162Z,5.02
2023-03-13T09:44:33.204Z,5.04
2023-03-13T09:47:08.386Z,5.07
2023-03-13T09:49:42.898Z,5.15
2023-03-13T09:52:21.488Z,5.22
2023-03-13T09:55:05.842Z,5.27
2023-03-13T09:57:53.560Z,5.31
2023-03-13T10:00:33.176Z,5.34
2023-03-13T10:03:14.924Z,5.39
2023-03-13T10:05:51.981Z,5.49
2023-03-13T10:08:23.468Z,5.55
2023-03-13T10:11:18.246Z,5.61
2023-03-13T10:13:56.086Z,5.65
2023-03-13T10:17:00.896Z,5.73
2023-03-13T10:19:41.858Z,5.83
2023-03-13T10:22:19.674Z,5.88
2023-03-13T10:25:09.819Z,5.95
2023-03-13T10:27:51.276Z,5.98
2023-03-13T10:30:32.880Z,5.96
2023-03-13T10:33:15.374Z,5.93
2023-03-13T10:35:44.847Z,5.95
2023-03-13T10:38:21.111Z,5.95
2023-03-13T10:41:00.437Z,6.00
2023-03-13T10:43:31.212Z,6.01
2023-03-13T10:46:01.240Z,6.03
2023-03-13T10:48:33.650Z,6.05
2023-03-13T10:51:03.341Z,6.10
2023-03-13T10:53:36.602Z,6.16
2023-03-13T10:56:14.565Z,6.27
2023-03-13T10:58:52.158Z,6.37
2023-03-13T11:01:28.762Z,6.45
2023-03-13T11:04:01.849Z,6.49
2023-03-13T11:06:35.415Z,6.55
2023-03-13T11:09:17.288Z,6.56
2023-03-13T11:11:50.837Z,6.57
2023-03-13T11:14:25.746Z,6.57
2023-03-13T11:17:02.764Z,6.60
2023-03-13T11:20:23.026Z,6.63
2023-03-13T11:23:23.888Z,6.67
2023-03-13T11:26:28.029Z,6.70
2023-03-13T11:29:03.917Z,6.78
2023-03-13T11:31:45.836Z,6.81
2023-03-13T11:34:53.221Z,6.78
2023-03-13T11:37:24.253Z,6.77
2023-03-13T11:40:08.663Z,6.74
2023-03-13T11:43:17.745Z,6.71
2023-03-13T11:45:56.510Z,6.73
2023-03-13T11:48:34.956Z,6.79
2023-03-13T11:51:28.396Z,6.87
2023-03-13T11:54:30.720Z,6.96
2023-03-13T11:57:13.320Z,7.02
2023-03-13T12:00:27.192Z,7.05
2023-03-13T12:03:09.271Z,7.06
2023-03-13T12:05:48.678Z,7.04
2023-03-13T12:08:43.304Z,7.02
2023-03-13T12:11:35.546Z,7.06
2023-03-13T12:14:16.048Z,7.10
2023-03-13T12:16:58.798Z,7.16
2023-03-13T12:19:37.002Z,7.16
2023-03-13T12:22:39.038Z,7.18
2023-03-13T12:25:31.153Z,7.13
2023-03-13T12:28:25.873Z,7.07
2023-03-13T12:31:09.812Z,7.08
2023-03-13T12:33:55.260Z,7.07
2023-03-13T12:36:45.142Z,7.06
2023-03-13T12:39:47.932Z,7.09
2023-03-13T12:42:52.682Z,7.12
2023-03-13T12:45:24.510Z,7.17
2023-03-13T12:48:35.027Z,7.19
2023-03-13T12:51:41.068Z,7.22
2023-03-13T12:54:36.788Z,7.26
2023-03-13T12:57:44.303Z,7.27
2023-03-13T13:00:22.094Z,7.30
2023-03-13T13:03:22.287Z,7.30
2023-03-13T13:06:12.061Z,7.33
2023-03-13T13:08:55.663Z,7.40
2023-03-13T13:11:48.330Z,7.45
2023-03-13T13:14:23.544Z,7.48
2023-03-13T13:17:21.688Z,7.47
2023-03-13T13:19:52.771Z,7.45
2023-03-13T13:22:42.777Z,7.42
2023-03-13T13:25:20.057Z,7.40
2023-03-13T13:27:49.052Z,7.37
2023-03-13T13:30:24.798Z,7.37
2023-03-13T13:33:23.337Z,7.36
2023-03-13T13:36:10.554Z,7.35
2023-03-13T13:38:41.601Z,7.34
2023-03-13T13:41:16.308Z,7.34
2023-03-13T13:43:47.253Z,7.35
2023-03-13T13:46:27.957Z,7.37
2023-03-13T13:49:17.252Z,7.37
2023-03-13T13:52:08.545Z,7.37
2023-03-13T13:54:56.055Z,7.38
2023-03-13T13:57:32.774Z,7.38
2023-03-13T14:00:23.934Z,7.38
2023-03-13T14:02:54.153Z,7.39
2023-03-13T14:05:28.697Z,7.38
2023-03-13T14:08:07.582Z,7.39
2023-03-13T14:10:41.214Z,7.40
2023-03-13T14:13:20.408Z,7.42
2023-03-13T14:15:55.394Z,7.44
2023-03-13T14:18:30.121Z,7.44
2023-03-13T14:21:04.832Z,7.43
2023-03-13T14:23:44.009Z,7.43
2023-03-13T14:26:26.074Z,7.43
2023-03-13T14:29:02.506Z,7.42
2023-03-13T14:31:36.861Z,7.40
2023-03-13T14:34:13.270Z,7.38
2023-03-13T14:37:16.772Z,7.37
2023-03-13T14:39:40.667Z,7.35
2023-03-13T14:42:17.721Z,7.34
2023-03-13T14:44:48.324Z,7.33
2023-03-13T14:47:31.039Z,7.28
2023-03-13T14:50:05.565Z,7.27
2023-03-13T14:52:35.080Z,7.26
2023-03-13T14:55:09.121Z,7.25
2023-03-13T14:57:38.172Z,7.24
2023-03-13T15:00:43.915Z,7.24
2023-03-13T15:03:21.799Z,7.24
2023-03-13T15:06:09.267Z,7.20
2023-03-13T15:08:41.832Z,7.20
2023-03-13T15:11:31.864Z,7.19
2023-03-13T15:14:01.458Z,7.17
2023-03-13T15:16:30.423Z,7.16
2023-03-13T15:18:59.871Z,7.16
2023-03-13T15:21:30.792Z,7.14
2023-03-13T15:24:12.702Z,7.14
2023-03-13T15:26:41.973Z,7.11
2023-03-13T15:29:11.708Z,7.10
2023-03-13T15:31:41.157Z,7.09
2023-03-13T15:34:14.216Z,7.08
2023-03-13T15:36:46.285Z,7.07
2023-03-13T15:39:22.672Z,7.05
2023-03-13T15:41:58.246Z,7.04
2023-03-13T15:44:27.914Z,7.03
2023-03-13T15:46:58.735Z,7.02
2023-03-13T15:49:31.954Z,7.03
2023-03-13T15:52:02.550Z,7.02
2023-03-13T15:54:34.647Z,7.00
2023-03-13T15:57:04.943Z,6.99
2023-03-13T15:59:36.792Z,6.97
2023-03-13T16:02:22.068Z,6.98
2023-03-13T16:04:59.254Z,6.95
2023-03-13T16:07:29.635Z,6.95
2023-03-13T16:09:59.453Z,6.94
2023-03-13T16:12:28.753Z,6.94
2023-03-13T16:14:59.527Z,6.93
2023-03-13T16:17:29.152Z,6.93
2023-03-13T16:20:22.068Z,6.92
2023-03-13T16:22:53.659Z,6.90
2023-03-13T16:25:24.161Z,6.89
2023-03-13T16:27:55.478Z,6.87
2023-03-13T16:30:30.585Z,6.87
2023-03-13T16:33:00.226Z,6.85
2023-03-13T16:35:31.517Z,6.86
2023-03-13T16:38:02.087Z,6.84
2023-03-13T16:40:32.787Z,6.84
2023-03-13T16:43:01.954Z,6.84
2023-03-13T16:45:33.794Z,6.85
2023-03-13T16:48:04.968Z,6.83
2023-03-13T16:50:36.428Z,6.82
2023-03-13T16:53:05.451Z,6.81
2023-03-13T16:55:36.929Z,6.79
2023-03-13T16:58:07.897Z,6.79
2023-03-13T17:00:37.924Z,6.78
2023-03-13T17:03:06.763Z,6.78
2023-03-13T17:05:37.137Z,6.77
2023-03-13T17:08:11.230Z,6.77
2023-03-13T17:10:42.215Z,6.75
2023-03-13T17:13:11.997Z,6.76
2023-03-13T17:15:41.237Z,6.76
2023-03-13T17:18:14.383Z,6.76
2023-03-13T17:20:43.747Z,6.75
2023-03-13T17:23:14.311Z,6.74
2023-03-13T17:25:43.439Z,6.74
2023-03-13T17:28:14.604Z,6.73
2023-03-13T17:30:45.028Z,6.73
2023-03-13T17:33:13.710Z,6.71
2023-03-13T17:35:45.290Z,6.71
2023-03-13T17:38:15.684Z,6.69
2023-03-13T17:40:45.854Z,6.68
2023-03-13T17:43:14.460Z,6.66
2023-03-13T17:45:42.994Z,6.63
2023-03-13T17:48:13.174Z,6.62
2023-03-13T17:50:43.697Z,6.60
2023-03-13T17:53:14.291Z,6.58
2023-03-13T17:55:44.241Z,6.56
2023-03-13T17:58:16.333Z,6.54
2023-03-13T18:00:47.183Z,6.52
2023-03-13T18:03:17.024Z,6.49
2023-03-13T18:05:46.682Z,6.47
2023-03-13T18:08:16.337Z,6.44
2023-03-13T18:10:46.899Z,6.40
2023-03-13T18:13:17.276Z,6.36
2023-03-13T18:15:45.953Z,6.34
2023-03-13T18:18:16.660Z,6.31
2023-03-13T18:20:45.294Z,6.29
2023-03-13T18:23:14.128Z,6.26
2023-03-13T18:25:44.590Z,6.25
2023-03-13T18:28:15.969Z,6.23
2023-03-13T18:30:44.677Z,6.20
2023-03-13T18:33:13.376Z,6.17
2023-03-13T18:35:42.374Z,6.14
2023-03-13T18:38:13.867Z,6.13
2023-03-13T18:40:42.948Z,6.10
2023-03-13T18:43:14.883Z,6.06
2023-03-13T18:45:43.873Z,6.05
2023-03-13T18:48:12.690Z,6.02
2023-03-13T18:50:45.569Z,6.00
2023-03-13T18:53:14.455Z,5.98
2023-03-13T18:55:44.804Z,5.96
2023-03-13T18:58:15.078Z,5.93
2023-03-13T19:00:45.013Z,5.90
2023-03-13T19:03:16.214Z,5.88
2023-03-13T19:05:48.039Z,5.84
2023-03-13T19:08:16.779Z,5.81
2023-03-13T19:10:45.756Z,5.79
2023-03-13T19:13:17.048Z,5.77
2023-03-13T19:15:49.179Z,5.75
2023-03-13T19:18:19.187Z,5.73
2023-03-13T19:20:50.000Z,5.72
2023-03-13T19:23:19.194Z,5.71
2023-03-13T19:25:47.797Z,5.68
2023-03-13T19:28:17.068Z,5.65
2023-03-13T19:30:47.256Z,5.65
2023-03-13T19:33:16.349Z,5.64
2023-03-13T19:35:45.121Z,5.63
2023-03-13T19:38:14.972Z,5.61
2023-03-13T19:40:44.408Z,5.59
2023-03-13T19:43:14.182Z,5.57
2023-03-13T19:45:44.270Z,5.55
2023-03-13T19:48:14.453Z,5.53
2023-03-13T19:50:45.927Z,5.50
2023-03-13T19:53:16.173Z,5.47
2023-03-13T19:55:45.172Z,5.44
2023-03-13T19:58:15.466Z,5.43
2023-03-13T20:00:44.967Z,5.39
2023-03-13T20:03:14.978Z,5.38
2023-03-13T20:05:44.625Z,5.36
2023-03-13T20:08:14.818Z,5.33
2023-03-13T20:10:44.699Z,5.30
2023-03-13T20:13:14.969Z,5.27
2023-03-13T20:15:45.957Z,5.25
2023-03-13T20:18:14.913Z,5.24
2023-03-13T20:20:45.384Z,5.23
2023-03-13T20:23:13.852Z,5.24
2023-03-13T20:25:42.526Z,5.21
2023-03-13T20:28:11.574Z,5.19
2023-03-13T20:30:42.758Z,5.17
2023-03-13T20:33:12.276Z,5.16
2023-03-13T20:35:41.931Z,5.14
2023-03-13T20:38:10.690Z,5.12
2023-03-13T20:40:41.177Z,5.11
2023-03-13T20:43:10.322Z,5.09
2023-03-13T20:45:40.782Z,5.08
2023-03-13T20:48:09.868Z,5.07
2023-03-13T20:50:38.856Z,5.06
2023-03-13T20:53:07.519Z,5.06
2023-03-13T20:55:39.753Z,5.04
2023-03-13T20:58:10.165Z,5.03
2023-03-13T21:00:41.334Z,5.02
2023-03-13T21:03:13.081Z,4.99
2023-03-13T21:05:43.195Z,4.97
2023-03-13T21:08:12.100Z,4.97
2023-03-13T21:10:41.910Z,4.95
2023-03-13T21:13:11.753Z,4.94
2023-03-13T21:15:43.400Z,4.94
2023-03-13T21:18:13.817Z,4.93
2023-03-13T21:20:43.940Z,4.90
2023-03-13T21:23:12.702Z,4.88
2023-03-13T21:25:42.420Z,4.85
2023-03-13T21:28:11.128Z,4.86
2023-03-13T21:30:42.106Z,4.85
2023-03-13T21:33:12.539Z,4.83
2023-03-13T21:35:42.498Z,4.83
2023-03-13T21:38:11.314Z,4.83
2023-03-13T21:40:41.086Z,4.84
2023-03-13T21:43:10.938Z,4.84
2023-03-13T21:45:42.260Z,4.83
2023-03-13T21:48:12.314Z,4.84
2023-03-13T21:50:41.044Z,4.86
2023-03-13T21:53:12.813Z,4.86
2023-03-13T21:55:41.574Z,4.87
2023-03-13T21:58:11.191Z,4.87
2023-03-13T22:00:41.891Z,4.88
2023-03-13T22:03:10.704Z,4.89
2023-03-13T22:05:43.139Z,4.89
2023-03-13T22:08:13.203Z,4.90
2023-03-13T22:10:48.800Z,4.90
2023-03-13T22:13:19.284Z,4.90
2023-03-13T22:15:50.305Z,4.91
2023-03-13T22:18:20.594Z,4.91
2023-03-13T22:20:51.013Z,4.91
2023-03-13T22:23:19.632Z,4.93
2023-03-13T22:25:48.488Z,4.93
2023-03-13T22:28:17.711Z,4.94
2023-03-13T22:30:46.295Z,4.94
2023-03-13T22:33:17.986Z,4.94
2023-03-13T22:35:52.363Z,4.95
2023-03-13T22:38:21.801Z,4.93
2023-03-13T22:41:02.590Z,4.93
2023-03-13T22:43:33.172Z,4.95
2023-03-13T22:46:04.151Z,4.95
2023-03-13T22:48:33.761Z,4.94
2023-03-13T22:51:11.971Z,4.95
2023-03-13T22:53:41.607Z,4.95
2023-03-13T22:56:14.480Z,4.95
2023-03-13T22:58:43.786Z,4.96
2023-03-13T23:01:18.218Z,4.95
2023-03-13T23:03:48.023Z,4.94
2023-03-13T23:06:20.713Z,4.94
2023-03-13T23:08:50.327Z,4.93
2023-03-13T23:11:20.378Z,4.91
2023-03-13T23:13:50.595Z,4.90
2023-03-13T23:16:19.535Z,4.89
2023-03-13T23:18:48.481Z,4.89
2023-03-13T23:21:17.070Z,4.90
2023-03-13T23:23:46.983Z,4.89
2023-03-13T23:26:16.191Z,4.87
2023-03-13T23:28:46.672Z,4.88
2023-03-13T23:31:18.337Z,4.86
2023-03-13T23:33:49.851Z,4.86
2023-03-13T23:36:19.964Z,4.86
2023-03-13T23:38:49.761Z,4.84
2023-03-13T23:41:20.176Z,4.86
2023-03-13T23:43:49.377Z,4.86
2023-03-13T23:46:28.366Z,4.84
2023-03-13T23:48:57.435Z,4.84
2023-03-13T23:51:26.335Z,4.82
2023-03-13T23:53:55.534Z,4.83
2023-03-13T23:56:29.415Z,4.83
2023-03-13T23:58:58.102Z,4.82
